createdAt,value
2022-08-02T00:00:31.571Z,99.99
2022-08-02T00:01:31.669Z,99.99
2022-08-02T00:02:31.565Z,99.99
2022-08-02T00:03:31.558Z,99.50
2022-08-02T00:04:31.558Z,99.99
2022-08-02T00:05:31.565Z,99.99
2022-08-02T00:06:31.547Z,99.99
2022-08-02T00:07:31.553Z,99.99
2022-08-02T00:08:31.540Z,99.99
2022-08-02T00:09:31.536Z,99.99
2022-08-02T00:10:31.534Z,99.99
2022-08-02T00:11:31.530Z,99.99
2022-08-02T00:12:31.521Z,99.99
2022-08-02T00:13:31.516Z,99.40
2022-08-02T00:14:31.515Z,99.99
2022-08-02T00:15:31.507Z,99.55
2022-08-02T00:16:37.987Z,99.16
2022-08-02T00:17:31.501Z,99.07
2022-08-02T00:18:31.498Z,98.97
2022-08-02T00:19:31.492Z,98.39
2022-08-02T00:20:31.504Z,97.52
2022-08-02T00:21:31.482Z,97.42
2022-08-02T00:22:31.482Z,98.00
2022-08-02T00:23:31.476Z,97.04
2022-08-02T00:24:31.493Z,96.08
2022-08-02T00:25:31.466Z,96.56
2022-08-02T00:26:31.465Z,96.94
2022-08-02T00:27:31.460Z,96.46
2022-08-02T00:28:31.454Z,96.75
2022-08-02T00:29:31.450Z,97.04
2022-08-02T00:30:31.447Z,97.04
2022-08-02T00:31:31.445Z,96.94
2022-08-02T00:32:31.437Z,97.52
2022-08-02T00:34:05.673Z,98.00
2022-08-02T00:34:35.010Z,97.62
2022-08-02T00:35:31.425Z,97.91
2022-08-02T00:36:31.421Z,97.62
2022-08-02T00:37:31.416Z,97.52
2022-08-02T00:38:31.411Z,98.30
2022-08-02T00:39:34.665Z,97.52
2022-08-02T00:40:31.419Z,97.96
2022-08-02T00:41:31.400Z,98.54
2022-08-02T00:42:31.395Z,99.21
2022-08-02T00:43:31.398Z,99.21
2022-08-02T00:44:31.384Z,99.88
2022-08-02T00:46:02.229Z,99.50
2022-08-02T00:46:31.375Z,99.02
2022-08-02T00:47:31.472Z,99.60
2022-08-02T00:48:31.366Z,99.79
2022-08-02T00:49:31.435Z,99.21
2022-08-02T00:50:31.357Z,99.99
2022-08-02T00:51:31.355Z,99.99
2022-08-02T00:52:31.449Z,99.99
2022-08-02T00:53:31.346Z,99.99
2022-08-02T00:54:31.342Z,99.99
2022-08-02T00:55:31.571Z,99.99
2022-08-02T00:56:31.331Z,99.99
2022-08-02T00:57:31.377Z,99.93
2022-08-02T00:58:31.321Z,99.93
2022-08-02T00:59:31.319Z,99.99
2022-08-02T01:00:31.317Z,99.99
2022-08-02T01:01:31.340Z,99.99
2022-08-02T01:02:31.354Z,99.40
2022-08-02T01:03:31.301Z,99.31
2022-08-02T01:04:32.403Z,99.60
2022-08-02T01:05:39.029Z,99.50
2022-08-02T01:06:31.286Z,99.60
2022-08-02T01:07:31.282Z,99.31
2022-08-02T01:08:31.779Z,99.40
2022-08-02T01:09:31.276Z,99.31
2022-08-02T01:10:31.268Z,99.40
2022-08-02T01:11:31.264Z,99.02
2022-08-02T01:12:31.260Z,99.02
2022-08-02T01:13:31.256Z,99.69
2022-08-02T01:14:31.247Z,99.11
2022-08-02T01:15:35.934Z,99.02
2022-08-02T01:16:31.240Z,99.21
2022-08-02T01:17:31.236Z,99.02
2022-08-02T01:18:31.231Z,98.63
2022-08-02T01:19:31.228Z,99.02
2022-08-02T01:20:31.221Z,99.26
2022-08-02T01:21:31.220Z,99.50
2022-08-02T01:22:59.403Z,99.31
2022-08-02T01:23:31.209Z,99.60
2022-08-02T01:24:31.202Z,99.69
2022-08-02T01:25:31.200Z,99.21
2022-08-02T01:26:31.193Z,98.92
2022-08-02T01:27:31.190Z,99.99
2022-08-02T01:28:31.183Z,99.99
2022-08-02T01:29:31.178Z,99.84
2022-08-02T01:30:31.173Z,99.99
2022-08-02T01:31:31.170Z,99.99
2022-08-02T01:32:31.164Z,99.99
2022-08-02T01:33:31.161Z,99.99
2022-08-02T01:34:31.155Z,99.99
2022-08-02T01:35:50.705Z,99.99
2022-08-02T01:36:31.145Z,99.99
2022-08-02T01:37:31.141Z,99.99
2022-08-02T01:38:31.134Z,99.99
2022-08-02T01:39:32.495Z,99.99
2022-08-02T01:40:31.126Z,99.99
2022-08-02T01:41:31.122Z,99.99
2022-08-02T01:42:31.117Z,99.99
2022-08-02T01:43:31.112Z,99.99
2022-08-02T01:44:31.104Z,99.99
2022-08-02T01:45:31.101Z,99.99
2022-08-02T01:46:31.094Z,99.99
2022-08-02T01:47:31.094Z,99.99
2022-08-02T01:48:31.085Z,99.99
2022-08-02T01:49:31.225Z,99.99
2022-08-02T01:50:31.076Z,99.99
2022-08-02T01:51:34.562Z,99.99
2022-08-02T01:52:31.068Z,99.99
2022-08-02T01:53:31.063Z,99.99
2022-08-02T01:54:31.054Z,99.99
2022-08-02T01:55:35.322Z,99.99
2022-08-02T01:56:31.046Z,99.99
2022-08-02T01:57:31.041Z,99.99
2022-08-02T01:58:31.034Z,99.99
2022-08-02T01:59:31.032Z,99.99
2022-08-02T02:00:31.025Z,99.99
2022-08-02T02:01:31.058Z,99.99
2022-08-02T02:02:31.878Z,99.99
2022-08-02T02:03:31.011Z,99.99
2022-08-02T02:04:31.007Z,99.99
2022-08-02T02:05:31.002Z,99.99
2022-08-02T02:06:30.994Z,99.99
2022-08-02T02:07:30.991Z,99.99
2022-08-02T02:08:31.185Z,99.99
2022-08-02T02:09:30.979Z,99.99
2022-08-02T02:10:30.974Z,99.99
2022-08-02T02:12:14.714Z,99.99
2022-08-02T02:12:30.964Z,99.99
2022-08-02T02:13:33.677Z,99.99
2022-08-02T02:14:30.954Z,99.99
2022-08-02T02:15:30.950Z,99.99
2022-08-02T02:16:30.941Z,99.99
2022-08-02T02:17:53.160Z,99.99
2022-08-02T02:18:30.930Z,99.99
2022-08-02T02:19:30.929Z,99.99
2022-08-02T02:20:30.921Z,99.99
2022-08-02T02:21:31.384Z,99.99
2022-08-02T02:22:30.912Z,99.99
2022-08-02T02:23:35.476Z,99.99
2022-08-02T02:24:30.901Z,99.99
2022-08-02T02:25:35.773Z,99.99
2022-08-02T02:26:31.729Z,99.99
2022-08-02T02:27:30.887Z,99.99
2022-08-02T02:28:30.881Z,99.99
2022-08-02T02:29:30.876Z,99.99
2022-08-02T02:30:30.868Z,99.99
2022-08-02T02:31:30.868Z,99.99
2022-08-02T02:32:30.860Z,99.99
2022-08-02T02:33:30.856Z,99.99
2022-08-02T02:34:30.847Z,99.99
2022-08-02T02:35:30.846Z,99.99
2022-08-02T02:36:30.847Z,99.99
2022-08-02T02:37:30.835Z,99.99
2022-08-02T02:38:30.830Z,99.99
2022-08-02T02:39:30.875Z,99.99
2022-08-02T02:40:30.818Z,99.99
2022-08-02T02:41:30.814Z,99.99
2022-08-02T02:42:30.807Z,99.99
2022-08-02T02:43:30.803Z,99.99
2022-08-02T02:44:30.795Z,99.99
2022-08-02T02:45:30.794Z,99.99
2022-08-02T02:46:30.801Z,99.99
2022-08-02T02:47:41.541Z,99.99
2022-08-02T02:48:30.777Z,99.99
2022-08-02T02:49:30.884Z,99.99
2022-08-02T02:50:30.764Z,99.99
2022-08-02T02:51:30.764Z,99.99
2022-08-02T02:52:30.756Z,99.99
2022-08-02T02:53:30.755Z,99.99
2022-08-02T02:54:34.068Z,99.99
2022-08-02T02:55:30.742Z,99.99
2022-08-02T02:56:30.733Z,99.99
2022-08-02T02:57:30.732Z,99.99
2022-08-02T02:58:30.722Z,99.99
2022-08-02T02:59:30.720Z,99.99
2022-08-02T03:00:30.713Z,99.99
2022-08-02T03:01:55.780Z,99.99
2022-08-02T03:02:30.700Z,99.99
2022-08-02T03:03:30.697Z,99.99
2022-08-02T03:04:36.142Z,99.99
2022-08-02T03:05:30.685Z,99.99
2022-08-02T03:06:30.678Z,99.99
2022-08-02T03:07:30.674Z,99.99
2022-08-02T03:08:30.667Z,99.99
2022-08-02T03:09:30.664Z,99.99
2022-08-02T03:10:30.659Z,99.99
2022-08-02T03:11:30.652Z,99.99
2022-08-02T03:12:32.354Z,99.99
2022-08-02T03:13:33.035Z,99.99
2022-08-02T03:14:30.634Z,99.99
2022-08-02T03:15:30.630Z,99.99
2022-08-02T03:16:30.625Z,99.99
2022-08-02T03:17:30.620Z,99.99
2022-08-02T03:18:30.612Z,99.99
2022-08-02T03:19:33.213Z,99.99
2022-08-02T03:20:30.601Z,99.99
2022-08-02T03:21:30.597Z,99.99
2022-08-02T03:22:30.590Z,99.99
2022-08-02T03:23:30.585Z,99.99
2022-08-02T03:24:30.580Z,99.99
2022-08-02T03:25:30.576Z,99.99
2022-08-02T03:26:30.567Z,99.99
2022-08-02T03:27:30.566Z,99.99
2022-08-02T03:28:30.558Z,99.99
2022-08-02T03:29:34.456Z,99.99
2022-08-02T03:30:30.545Z,99.99
2022-08-02T03:31:32.802Z,99.99
2022-08-02T03:32:30.535Z,99.99
2022-08-02T03:33:30.530Z,99.99
2022-08-02T03:34:30.525Z,99.99
2022-08-02T03:35:30.519Z,99.99
2022-08-02T03:36:30.513Z,99.99
2022-08-02T03:37:30.508Z,99.99
2022-08-02T03:38:30.502Z,99.99
2022-08-02T03:39:30.499Z,99.99
2022-08-02T03:40:30.491Z,99.99
2022-08-02T03:41:30.487Z,99.99
2022-08-02T03:42:30.481Z,99.99
2022-08-02T03:43:30.475Z,99.99
2022-08-02T03:44:30.468Z,99.99
2022-08-02T03:45:30.464Z,99.99
2022-08-02T03:46:30.456Z,99.99
2022-08-02T03:47:30.452Z,99.99
2022-08-02T03:48:34.618Z,99.99
2022-08-02T03:49:30.524Z,99.99
2022-08-02T03:50:30.434Z,99.99
2022-08-02T03:51:30.431Z,99.99
2022-08-02T03:52:30.423Z,99.99
2022-08-02T03:53:30.419Z,99.99
2022-08-02T03:54:34.417Z,99.99
2022-08-02T03:55:30.408Z,99.99
2022-08-02T03:56:30.406Z,99.99
2022-08-02T03:57:30.396Z,99.99
2022-08-02T03:58:30.390Z,99.99
2022-08-02T03:59:31.976Z,99.99
2022-08-02T04:01:30.393Z,99.99
2022-08-02T04:02:30.374Z,99.99
2022-08-02T04:03:30.363Z,99.99
2022-08-02T04:04:30.358Z,99.99
2022-08-02T04:05:30.349Z,99.99
2022-08-02T04:06:30.348Z,99.99
2022-08-02T04:08:32.527Z,99.99
2022-08-02T04:08:35.615Z,99.99
2022-08-02T04:09:30.329Z,99.99
2022-08-02T04:10:30.324Z,99.99
2022-08-02T04:11:30.322Z,99.99
2022-08-02T04:12:30.316Z,99.99
2022-08-02T04:13:34.493Z,99.99
2022-08-02T04:14:30.302Z,99.99
2022-08-02T04:15:30.296Z,99.99
2022-08-02T04:16:30.293Z,99.99
2022-08-02T04:17:30.282Z,99.99
2022-08-02T04:18:30.280Z,99.99
2022-08-02T04:19:30.272Z,99.99
2022-08-02T04:20:30.273Z,99.99
2022-08-02T04:21:48.593Z,99.99
2022-08-02T04:22:30.257Z,99.99
2022-08-02T04:23:30.251Z,99.99
2022-08-02T04:24:30.245Z,99.99
2022-08-02T04:25:35.301Z,99.99
2022-08-02T04:26:30.234Z,99.99
2022-08-02T04:27:50.046Z,99.99
2022-08-02T04:28:30.224Z,99.99
2022-08-02T04:29:30.214Z,99.99
2022-08-02T04:30:30.211Z,99.99
2022-08-02T04:31:30.205Z,99.99
2022-08-02T04:32:30.200Z,99.99
2022-08-02T04:33:30.193Z,99.99
2022-08-02T04:34:30.189Z,99.99
2022-08-02T04:35:30.183Z,99.99
2022-08-02T04:36:30.894Z,99.99
2022-08-02T04:37:30.170Z,99.99
2022-08-02T04:38:30.166Z,99.99
2022-08-02T04:39:30.158Z,99.99
2022-08-02T04:40:30.155Z,99.99
2022-08-02T04:41:30.146Z,99.99
2022-08-02T04:42:30.144Z,99.99
2022-08-02T04:43:30.139Z,99.99
2022-08-02T04:44:30.131Z,99.99
2022-08-02T04:45:30.126Z,99.99
2022-08-02T04:46:30.119Z,99.99
2022-08-02T04:48:02.549Z,99.99
2022-08-02T04:48:30.109Z,99.99
2022-08-02T04:49:30.162Z,99.07
2022-08-02T04:50:30.097Z,96.22
2022-08-02T04:51:37.919Z,94.18
2022-08-02T04:52:30.090Z,92.88
2022-08-02T04:53:30.086Z,90.26
2022-08-02T04:54:30.081Z,88.71
2022-08-02T04:55:30.288Z,87.59
2022-08-02T04:56:30.074Z,86.72
2022-08-02T04:57:30.072Z,85.79
2022-08-02T04:58:44.090Z,84.96
2022-08-02T04:59:30.066Z,83.60
2022-08-02T05:00:30.100Z,82.48
2022-08-02T05:01:30.061Z,81.45
2022-08-02T05:02:30.058Z,81.30
2022-08-02T05:03:30.059Z,80.42
2022-08-02T05:04:30.057Z,79.64
2022-08-02T05:05:30.056Z,79.55
2022-08-02T05:06:30.058Z,79.64
2022-08-02T05:07:30.053Z,79.25
2022-08-02T05:08:30.051Z,79.41
2022-08-02T05:09:30.051Z,78.83
2022-08-02T05:10:30.053Z,79.41
2022-08-02T05:11:36.129Z,79.71
2022-08-02T05:12:30.050Z,79.16
2022-08-02T05:13:30.047Z,78.67
2022-08-02T05:14:30.048Z,78.03
2022-08-02T05:15:33.247Z,78.13
2022-08-02T05:16:30.885Z,77.64
2022-08-02T05:17:30.052Z,77.45
2022-08-02T05:18:30.046Z,77.06
2022-08-02T05:19:30.045Z,77.10
2022-08-02T05:20:30.047Z,76.61
2022-08-02T05:21:30.042Z,76.87
2022-08-02T05:22:30.041Z,77.00
2022-08-02T05:23:30.040Z,76.97
2022-08-02T05:24:30.038Z,76.87
2022-08-02T05:25:30.038Z,76.97
2022-08-02T05:26:30.042Z,77.45
2022-08-02T05:27:30.037Z,78.19
2022-08-02T05:28:30.034Z,79.12
2022-08-02T05:29:30.034Z,80.15
2022-08-02T05:30:30.029Z,81.12
2022-08-02T05:31:30.031Z,80.83
2022-08-02T05:32:30.027Z,81.31
2022-08-02T05:33:30.027Z,81.12
2022-08-02T05:34:30.027Z,81.12
2022-08-02T05:35:30.023Z,81.02
2022-08-02T05:36:30.019Z,81.02
2022-08-02T05:37:32.011Z,80.93
2022-08-02T05:38:30.022Z,81.06
2022-08-02T05:39:31.744Z,81.06
2022-08-02T05:40:30.014Z,81.16
2022-08-02T05:41:30.017Z,81.16
2022-08-02T05:42:30.010Z,79.90
2022-08-02T05:43:30.010Z,81.06
2022-08-02T05:44:30.006Z,80.68
2022-08-02T05:45:30.006Z,80.68
2022-08-02T05:46:30.003Z,80.38
2022-08-02T05:47:30.004Z,80.09
2022-08-02T05:48:32.186Z,80.58
2022-08-02T05:49:30.030Z,80.38
2022-08-02T05:50:30.000Z,80.29
2022-08-02T05:51:29.996Z,80.29
2022-08-02T05:52:29.993Z,79.90
2022-08-02T05:53:29.992Z,80.29
2022-08-02T05:54:29.992Z,80.38
2022-08-02T05:55:29.990Z,80.58
2022-08-02T05:56:29.988Z,80.68
2022-08-02T05:57:29.987Z,81.12
2022-08-02T05:58:29.986Z,81.60
2022-08-02T05:59:29.983Z,82.18
2022-08-02T06:00:29.983Z,82.24
2022-08-02T06:01:30.100Z,83.02
2022-08-02T06:02:30.581Z,83.22
2022-08-02T06:03:29.977Z,83.31
2022-08-02T06:04:29.974Z,83.40
2022-08-02T06:05:29.975Z,83.89
2022-08-02T06:06:29.969Z,84.19
2022-08-02T06:07:29.969Z,84.19
2022-08-02T06:08:29.967Z,84.14
2022-08-02T06:09:29.965Z,84.24
2022-08-02T06:10:29.968Z,84.28
2022-08-02T06:11:29.962Z,84.19
2022-08-02T06:12:29.959Z,83.70
2022-08-02T06:13:29.958Z,84.28
2022-08-02T06:14:30.559Z,83.60
2022-08-02T06:15:29.956Z,84.19
2022-08-02T06:16:32.511Z,83.99
2022-08-02T06:17:29.952Z,84.19
2022-08-02T06:18:29.949Z,84.19
2022-08-02T06:19:29.950Z,84.38
2022-08-02T06:20:29.959Z,84.57
2022-08-02T06:22:34.891Z,84.57
2022-08-02T06:22:37.679Z,84.19
2022-08-02T06:23:29.943Z,84.77
2022-08-02T06:24:29.940Z,83.99
2022-08-02T06:25:51.080Z,84.86
2022-08-02T06:26:29.936Z,85.25
2022-08-02T06:27:29.939Z,84.86
2022-08-02T06:28:29.930Z,85.06
2022-08-02T06:29:29.936Z,84.96
2022-08-02T06:30:29.928Z,84.82
2022-08-02T06:31:29.932Z,85.50
2022-08-02T06:32:29.924Z,84.57
2022-08-02T06:33:29.926Z,84.77
2022-08-02T06:34:29.920Z,84.77
2022-08-02T06:35:29.922Z,84.19
2022-08-02T06:36:29.920Z,84.47
2022-08-02T06:37:29.918Z,84.28
2022-08-02T06:38:29.913Z,84.28
2022-08-02T06:39:29.916Z,84.77
2022-08-02T06:40:29.910Z,84.77
2022-08-02T06:41:29.912Z,84.57
2022-08-02T06:42:29.907Z,84.86
2022-08-02T06:44:49.921Z,85.50
2022-08-02T06:45:29.904Z,85.50
2022-08-02T06:46:37.700Z,86.18
2022-08-02T06:47:29.901Z,86.52
2022-08-02T06:48:29.899Z,87.10
2022-08-02T06:49:51.940Z,87.16
2022-08-02T06:50:29.896Z,87.64
2022-08-02T06:51:29.893Z,87.35
2022-08-02T06:52:30.609Z,87.84
2022-08-02T06:53:29.887Z,87.45
2022-08-02T06:54:29.888Z,87.74
2022-08-02T06:55:29.884Z,87.54
2022-08-02T06:56:29.884Z,86.91
2022-08-02T06:57:29.886Z,87.01
2022-08-02T06:58:29.881Z,87.78
2022-08-02T06:59:29.875Z,88.46
2022-08-02T07:00:29.876Z,88.75
2022-08-02T07:01:38.659Z,88.75
2022-08-02T07:02:29.871Z,88.75
2022-08-02T07:03:29.867Z,88.27
2022-08-02T07:04:29.866Z,88.37
2022-08-02T07:05:29.862Z,88.65
2022-08-02T07:06:29.861Z,88.85
2022-08-02T07:07:29.859Z,89.09
2022-08-02T07:08:29.859Z,89.97
2022-08-02T07:09:29.855Z,89.19
2022-08-02T07:10:29.858Z,89.00
2022-08-02T07:11:29.849Z,88.71
2022-08-02T07:12:29.866Z,87.88
2022-08-02T07:13:29.846Z,86.82
2022-08-02T07:14:29.846Z,86.91
2022-08-02T07:15:29.842Z,87.82
2022-08-02T07:16:29.842Z,87.30
2022-08-02T07:17:29.837Z,86.95
2022-08-02T07:18:29.839Z,86.37
2022-08-02T07:19:37.743Z,86.08
2022-08-02T07:20:29.836Z,85.21
2022-08-02T07:21:45.829Z,84.24
2022-08-02T07:22:29.830Z,84.05
2022-08-02T07:23:29.827Z,84.53
2022-08-02T07:24:29.927Z,84.63
2022-08-02T07:26:02.340Z,84.53
2022-08-02T07:26:29.822Z,84.82
2022-08-02T07:27:29.820Z,84.24
2022-08-02T07:28:29.818Z,83.37
2022-08-02T07:29:33.596Z,82.88
2022-08-02T07:30:29.815Z,83.65
2022-08-02T07:31:29.812Z,84.14
2022-08-02T07:32:29.816Z,84.34
2022-08-02T07:33:38.931Z,84.82
2022-08-02T07:34:29.807Z,85.65
2022-08-02T07:35:29.804Z,85.75
2022-08-02T07:36:29.808Z,86.91
2022-08-02T07:37:53.472Z,87.84
2022-08-02T07:38:29.801Z,88.32
2022-08-02T07:39:29.797Z,88.51
2022-08-02T07:40:29.810Z,88.18
2022-08-02T07:41:29.792Z,89.49
2022-08-02T07:42:29.793Z,89.83
2022-08-02T07:43:29.791Z,89.15
2022-08-02T07:44:29.792Z,88.90
2022-08-02T07:45:29.785Z,88.13
2022-08-02T07:46:29.784Z,88.13
2022-08-02T07:47:29.782Z,87.30
2022-08-02T07:48:29.780Z,86.04
2022-08-02T07:49:29.886Z,84.82
2022-08-02T07:50:29.778Z,85.21
2022-08-02T07:51:29.771Z,84.14
2022-08-02T07:52:29.973Z,83.56
2022-08-02T07:53:50.260Z,84.34
2022-08-02T07:54:29.770Z,84.43
2022-08-02T07:55:39.074Z,84.34
2022-08-02T07:56:29.764Z,82.69
2022-08-02T07:57:29.761Z,82.24
2022-08-02T07:58:29.760Z,81.66
2022-08-02T07:59:29.756Z,81.37
2022-08-02T08:00:29.756Z,81.21
2022-08-02T08:01:29.791Z,81.12
2022-08-02T08:02:29.754Z,80.34
2022-08-02T08:03:29.751Z,79.76
2022-08-02T08:04:29.754Z,79.90
2022-08-02T08:05:29.745Z,79.22
2022-08-02T08:06:29.745Z,79.02
2022-08-02T08:07:29.741Z,79.02
2022-08-02T08:08:29.743Z,79.02
2022-08-02T08:09:29.740Z,78.92
2022-08-02T08:10:29.740Z,77.95
2022-08-02T08:11:29.736Z,77.86
2022-08-02T08:12:29.738Z,78.05
2022-08-02T08:13:29.733Z,78.05
2022-08-02T08:14:29.735Z,77.61
2022-08-02T08:15:29.731Z,77.86
2022-08-02T08:16:29.731Z,77.12
2022-08-02T08:17:29.728Z,77.31
2022-08-02T08:18:29.728Z,77.61
2022-08-02T08:19:49.961Z,77.51
2022-08-02T08:20:29.726Z,77.12
2022-08-02T08:21:29.721Z,76.83
2022-08-02T08:22:29.722Z,76.83
2022-08-02T08:23:29.720Z,77.02
2022-08-02T08:24:29.721Z,76.67
2022-08-02T08:25:29.717Z,76.28
2022-08-02T08:26:29.719Z,75.85
2022-08-02T08:27:29.716Z,75.51
2022-08-02T08:28:29.718Z,75.51
2022-08-02T08:29:29.713Z,75.60
2022-08-02T08:30:29.713Z,75.41
2022-08-02T08:31:29.712Z,74.15
2022-08-02T08:32:29.713Z,73.85
2022-08-02T08:33:29.711Z,73.08
2022-08-02T08:34:29.711Z,72.63
2022-08-02T08:35:29.706Z,73.11
2022-08-02T08:36:29.710Z,72.92
2022-08-02T08:37:29.706Z,72.86
2022-08-02T08:38:29.706Z,72.96
2022-08-02T08:39:29.705Z,73.15
2022-08-02T08:40:29.721Z,72.08
2022-08-02T08:41:30.128Z,71.98
2022-08-02T08:42:29.705Z,71.30
2022-08-02T08:43:29.705Z,70.81
2022-08-02T08:44:29.707Z,70.81
2022-08-02T08:45:29.701Z,70.85
2022-08-02T08:46:29.703Z,70.85
2022-08-02T08:47:33.460Z,70.36
2022-08-02T08:48:30.948Z,70.88
2022-08-02T08:49:29.728Z,70.36
2022-08-02T08:50:29.702Z,70.36
2022-08-02T08:51:29.698Z,70.68
2022-08-02T08:52:29.700Z,70.01
2022-08-02T08:53:36.931Z,69.81
2022-08-02T08:54:29.700Z,69.81
2022-08-02T08:55:29.698Z,70.36
2022-08-02T08:56:29.700Z,70.65
2022-08-02T08:57:29.701Z,70.36
2022-08-02T08:58:29.701Z,69.91
2022-08-02T08:59:29.696Z,69.91
2022-08-02T09:00:29.699Z,70.10
2022-08-02T09:01:49.830Z,69.71
2022-08-02T09:02:29.975Z,69.81
2022-08-02T09:03:33.802Z,69.32
2022-08-02T09:04:29.698Z,69.32
2022-08-02T09:05:29.700Z,69.71
2022-08-02T09:06:29.698Z,69.71
2022-08-02T09:07:29.702Z,69.42
2022-08-02T09:08:29.699Z,69.56
2022-08-02T09:09:29.700Z,69.36
2022-08-02T09:10:29.698Z,68.97
2022-08-02T09:11:29.702Z,69.10
2022-08-02T09:12:29.698Z,68.32
2022-08-02T09:13:37.561Z,68.13
2022-08-02T09:14:29.698Z,68.03
2022-08-02T09:15:29.701Z,67.38
2022-08-02T09:16:29.700Z,67.47
2022-08-02T09:17:29.702Z,67.18
2022-08-02T09:18:29.700Z,66.99
2022-08-02T09:19:29.703Z,66.99
2022-08-02T09:20:30.902Z,67.28
2022-08-02T09:21:29.703Z,66.86
2022-08-02T09:22:29.701Z,67.25
2022-08-02T09:23:29.705Z,67.15
2022-08-02T09:24:30.936Z,67.25
2022-08-02T09:25:29.707Z,67.74
2022-08-02T09:26:29.707Z,67.05
2022-08-02T09:27:29.707Z,67.99
2022-08-02T09:28:29.705Z,67.90
2022-08-02T09:29:29.710Z,69.13
2022-08-02T09:30:29.706Z,69.32
2022-08-02T09:31:29.711Z,69.91
2022-08-02T09:32:29.708Z,69.81
2022-08-02T09:33:29.708Z,69.62
2022-08-02T09:34:29.708Z,70.20
2022-08-02T09:35:29.709Z,69.81
2022-08-02T09:36:29.709Z,69.26
2022-08-02T09:37:29.715Z,69.46
2022-08-02T09:38:29.709Z,68.97
2022-08-02T09:40:29.712Z,68.23
2022-08-02T09:41:29.708Z,68.80
2022-08-02T09:42:30.083Z,68.06
2022-08-02T09:43:29.712Z,68.16
2022-08-02T09:44:29.713Z,67.28
2022-08-02T09:45:29.711Z,67.47
2022-08-02T09:46:29.714Z,66.99
2022-08-02T09:47:31.056Z,66.63
2022-08-02T09:48:29.715Z,65.95
2022-08-02T09:49:29.793Z,65.95
2022-08-02T09:50:29.716Z,65.95
2022-08-02T09:51:29.715Z,66.11
2022-08-02T09:52:43.374Z,66.21
2022-08-02T09:53:29.717Z,66.41
2022-08-02T09:54:29.719Z,66.21
2022-08-02T09:55:30.039Z,65.82
2022-08-02T09:58:29.722Z,66.60
2022-08-02T09:59:29.723Z,66.50
2022-08-02T10:00:50.721Z,66.50
2022-08-02T10:01:36.895Z,66.21
2022-08-02T10:02:29.842Z,66.31
2022-08-02T10:03:37.109Z,66.11
2022-08-02T10:04:29.726Z,66.02
2022-08-02T10:05:29.723Z,65.92
2022-08-02T10:06:29.726Z,66.66
2022-08-02T10:07:29.725Z,66.21
2022-08-02T10:08:29.778Z,66.41
2022-08-02T10:09:29.732Z,66.50
2022-08-02T10:10:29.731Z,66.05
2022-08-02T10:11:29.730Z,65.07
2022-08-02T10:12:29.734Z,64.68
2022-08-02T10:13:29.731Z,64.68
2022-08-02T10:14:29.731Z,64.00
2022-08-02T10:15:29.731Z,64.71
2022-08-02T10:16:29.734Z,64.32
2022-08-02T10:17:29.733Z,64.22
2022-08-02T10:18:38.901Z,63.87
2022-08-02T10:20:00.976Z,63.57
2022-08-02T10:20:29.740Z,63.28
2022-08-02T10:21:29.736Z,62.30
2022-08-02T10:22:29.741Z,62.13
2022-08-02T10:23:29.747Z,62.33
2022-08-02T10:24:29.745Z,61.74
2022-08-02T10:25:29.754Z,62.33
2022-08-02T10:26:29.746Z,62.21
2022-08-02T10:27:38.899Z,63.28
2022-08-02T10:28:29.749Z,62.79
2022-08-02T10:29:29.746Z,63.28
2022-08-02T10:30:29.749Z,63.09
2022-08-02T10:31:29.749Z,63.12
2022-08-02T10:32:29.754Z,63.31
2022-08-02T10:33:29.750Z,62.63
2022-08-02T10:34:31.829Z,62.23
2022-08-02T10:35:29.753Z,61.84
2022-08-02T10:36:29.758Z,61.94
2022-08-02T10:37:29.755Z,61.65
2022-08-02T10:38:29.761Z,61.84
2022-08-02T10:39:29.760Z,61.65
2022-08-02T10:40:29.764Z,60.57
2022-08-02T10:41:29.762Z,60.67
2022-08-02T10:42:29.766Z,61.35
2022-08-02T10:43:29.766Z,61.25
2022-08-02T10:44:29.770Z,61.06
2022-08-02T10:45:29.784Z,61.82
2022-08-02T10:46:29.773Z,61.82
2022-08-02T10:47:29.772Z,61.82
2022-08-02T10:48:29.776Z,60.45
2022-08-02T10:49:39.662Z,59.77
2022-08-02T10:50:29.779Z,58.62
2022-08-02T10:51:33.092Z,57.54
2022-08-02T10:52:29.784Z,59.23
2022-08-02T10:53:29.783Z,57.64
2022-08-02T10:54:29.786Z,58.59
2022-08-02T10:55:29.785Z,58.11
2022-08-02T10:56:29.792Z,59.08
2022-08-02T10:57:29.788Z,58.50
2022-08-02T10:58:30.061Z,58.59
2022-08-02T10:59:29.794Z,58.33
2022-08-02T11:00:29.795Z,56.67
2022-08-02T11:01:38.916Z,56.40
2022-08-02T11:02:29.798Z,55.84
2022-08-02T11:03:29.812Z,56.82
2022-08-02T11:04:29.803Z,56.52
2022-08-02T11:05:42.298Z,55.06
2022-08-02T11:06:29.808Z,54.79
2022-08-02T11:07:29.806Z,54.96
2022-08-02T11:08:29.811Z,56.43
2022-08-02T11:09:32.954Z,56.36
2022-08-02T11:10:29.815Z,56.16
2022-08-02T11:11:53.823Z,55.87
2022-08-02T11:12:29.818Z,54.62
2022-08-02T11:13:29.820Z,54.03
2022-08-02T11:14:29.822Z,54.43
2022-08-02T11:15:29.822Z,53.35
2022-08-02T11:16:29.828Z,52.40
2022-08-02T11:17:38.761Z,52.67
2022-08-02T11:18:29.831Z,53.23
2022-08-02T11:19:29.830Z,53.62
2022-08-02T11:20:29.835Z,53.13
2022-08-02T11:21:29.836Z,53.23
2022-08-02T11:22:29.840Z,53.03
2022-08-02T11:23:44.547Z,52.44
2022-08-02T11:24:29.853Z,51.86
2022-08-02T11:25:54.371Z,52.15
2022-08-02T11:26:29.849Z,51.56
2022-08-02T11:27:29.851Z,51.37
2022-08-02T11:28:29.856Z,51.37
2022-08-02T11:29:29.854Z,51.76
2022-08-02T11:30:29.858Z,51.27
2022-08-02T11:31:29.866Z,51.17
2022-08-02T11:32:30.745Z,51.27
2022-08-02T11:33:29.863Z,51.37
2022-08-02T11:34:37.628Z,51.68
2022-08-02T11:35:29.869Z,51.46
2022-08-02T11:36:29.874Z,51.37
2022-08-02T11:37:29.874Z,51.27
2022-08-02T11:38:29.880Z,52.08
2022-08-02T11:39:29.882Z,52.42
2022-08-02T11:40:32.503Z,52.93
2022-08-02T11:41:46.862Z,53.10
2022-08-02T11:42:29.886Z,53.88
2022-08-02T11:43:29.890Z,52.12
2022-08-02T11:44:29.895Z,52.64
2022-08-02T11:45:30.238Z,51.56
2022-08-02T11:46:29.897Z,51.37
2022-08-02T11:47:29.897Z,51.49
2022-08-02T11:48:29.902Z,51.78
2022-08-02T11:49:29.964Z,51.81
2022-08-02T11:50:30.714Z,52.00
2022-08-02T11:51:29.907Z,51.51
2022-08-02T11:52:29.911Z,51.54
2022-08-02T11:53:29.912Z,50.85
2022-08-02T11:54:29.918Z,50.66
2022-08-02T11:55:29.916Z,50.85
2022-08-02T11:56:29.923Z,51.17
2022-08-02T11:57:29.922Z,53.49
2022-08-02T11:58:29.927Z,52.42
2022-08-02T11:59:29.933Z,52.54
2022-08-02T12:00:30.520Z,51.46
2022-08-02T12:01:29.934Z,51.37
2022-08-02T12:02:29.944Z,52.05
2022-08-02T12:03:29.998Z,52.08
2022-08-02T12:04:29.944Z,52.56
2022-08-02T12:06:03.915Z,52.17
2022-08-02T12:06:29.947Z,50.93
2022-08-02T12:07:34.305Z,50.54
2022-08-02T12:08:29.953Z,50.73
2022-08-02T12:09:29.954Z,50.63
2022-08-02T12:10:29.958Z,49.85
2022-08-02T12:11:38.880Z,49.09
2022-08-02T12:12:29.965Z,48.63
2022-08-02T12:13:29.964Z,48.03
2022-08-02T12:14:29.970Z,49.31
2022-08-02T12:15:29.970Z,49.99
2022-08-02T12:16:29.978Z,49.51
2022-08-02T12:17:29.979Z,50.12
2022-08-02T12:18:29.980Z,48.85
2022-08-02T12:19:29.982Z,48.06
2022-08-02T12:20:29.988Z,48.16
2022-08-02T12:21:29.987Z,47.67
2022-08-02T12:22:30.043Z,47.67
2022-08-02T12:23:29.995Z,48.74
2022-08-02T12:24:30.013Z,49.24
2022-08-02T12:25:34.568Z,49.04
2022-08-02T12:26:30.119Z,48.63
2022-08-02T12:27:30.008Z,47.84
2022-08-02T12:28:30.013Z,47.86
2022-08-02T12:29:58.471Z,47.27
2022-08-02T12:30:30.021Z,47.10
2022-08-02T12:31:30.020Z,48.28
2022-08-02T12:32:30.027Z,47.79
2022-08-02T12:33:30.027Z,47.49
2022-08-02T12:34:32.324Z,45.63
2022-08-02T12:35:30.034Z,45.83
2022-08-02T12:36:30.062Z,45.88
2022-08-02T12:37:30.042Z,46.47
2022-08-02T12:38:30.046Z,46.76
2022-08-02T12:39:31.497Z,46.37
2022-08-02T12:40:30.053Z,46.37
2022-08-02T12:41:31.080Z,46.30
2022-08-02T12:42:30.063Z,46.30
2022-08-02T12:43:30.060Z,46.59
2022-08-02T12:44:30.065Z,46.88
2022-08-02T12:45:39.290Z,46.49
2022-08-02T12:46:30.074Z,47.27
2022-08-02T12:47:35.591Z,47.30
2022-08-02T12:48:36.673Z,45.92
2022-08-02T12:49:30.125Z,46.12
2022-08-02T12:50:30.092Z,46.22
2022-08-02T12:51:57.705Z,46.14
2022-08-02T12:52:30.094Z,45.85
2022-08-02T12:53:30.095Z,46.71
2022-08-02T12:54:30.797Z,46.41
2022-08-02T12:55:59.335Z,46.66
2022-08-02T12:56:30.112Z,48.11
2022-08-02T12:57:30.109Z,49.36